Latest Weather Observations for Edinburgh

IDS60901

Issued at 9:15 pm CST Friday 22 August 2014 (issued every 10 minutes, with the page automatically refreshed every 10 minutes)

About weather observations | Map of Adelaide area stations | Latest observations for Adelaide area | Other Formats
Station Details ID: 023083 Name: EDINBURGH RAAF Lat: -34.71 Lon: 138.62 Height: 16.54 m
Data from the previous 72 hours. | See also: Recent months at Edinburgh
Date/Time
CST
Tmp

°C
App
Tmp
°C
Dew
Point
°C
Rel
Hum
%
Delta-T

°C
Wind Press
QNH
hPa
Press
MSL
hPa
Rain
since
9 am
mm
Dir
 
Spd
km/h
Gust
km/h
Spd
kts
Gust
kts
22/09:00pm 10.6 6.2 2.9 59 3.3 NNE 15 17 8 9 1023.5 1023.5 0.0
22/08:30pm 11.8 7.1 3.1 55 3.8 NE 17 19 9 10 1023.3 1023.3 0.0
22/08:00pm 13.1 8.0 2.9 50 4.5 NE 19 22 10 12 1023.1 1023.1 0.0
22/07:30pm 12.0 7.8 4.0 58 3.6 NE 15 17 8 9 1023.0 1023.0 0.0
22/07:00pm 12.5 9.4 3.7 55 3.9 ENE 9 11 5 6 1023.1 1023.1 0.0
22/06:30pm 13.3 9.1 3.9 53 4.2 NE 15 17 8 9 1023.0 1023.0 0.0
22/06:00pm 14.3 10.6 4.6 52 4.5 ENE 13 17 7 9 1022.7 1022.7 0.0
22/05:30pm 15.9 11.5 4.6 47 5.3 NE 17 20 9 11 1022.7 1022.7 0.0
22/05:00pm 18.0 14.0 4.9 42 6.3 NE 15 19 8 10 1022.5 1022.5 0.0
22/04:30pm 19.0 14.0 3.6 36 7.2 NNE 19 24 10 13 1022.5 1022.5 0.0
22/04:00pm 19.4 14.1 3.2 34 7.6 NE 20 26 11 14 1022.4 1022.4 0.0
22/03:30pm 19.8 14.6 3.5 34 7.7 NNE 20 28 11 15 1022.6 1022.6 0.0
22/03:00pm 20.1 15.4 5.0 37 7.3 NNE 19 26 10 14 1022.6 1022.6 0.0
22/02:30pm 20.3 15.2 3.9 34 7.8 NE 20 28 11 15 1022.8 1022.8 0.0
22/02:00pm 19.9 14.7 3.6 34 7.7 NNE 20 28 11 15 1023.1 1023.1 0.0
22/01:30pm 20.0 15.0 4.5 36 7.5 NNE 20 28 11 15 1023.6 1023.6 0.0
22/01:00pm 19.6 14.3 4.9 38 7.1 NE 22 32 12 17 1024.0 1024.0 0.0
22/12:30pm 19.6 14.0 5.3 39 7.0 NNE 24 28 13 15 1024.6 1024.6 0.0
22/12:00pm 19.2 12.5 3.8 36 7.3 NE 28 35 15 19 1025.1 1025.1 0.0
22/11:30am 18.8 11.2 3.0 35 7.3 NNE 32 37 17 20 1025.7 1025.7 0.0
22/11:00am 18.5 11.2 4.3 39 6.8 NNE 32 39 17 21 1025.9 1025.9 0.0
22/10:30am 18.2 11.3 4.7 41 6.4 NNE 30 43 16 23 1026.3 1026.3 0.0
22/10:00am 17.4 11.9 6.0 47 5.6 NNE 24 32 13 17 1026.5 1026.5 0.0
22/09:30am 15.6 9.5 4.9 49 5.0 NE 26 32 14 17 1026.7 1026.7 0.0
22/09:00am 15.3 9.6 4.9 50 4.9 NE 24 32 13 17 1026.6 1026.6 0.0
22/08:30am 14.3 8.6 4.9 53 4.4 NE 24 28 13 15 1026.6 1026.6 0.0
22/08:00am 13.2 8.2 4.6 56 4.0 NE 20 24 11 13 1026.4 1026.4 0.0
22/07:30am 12.2 8.2 5.1 62 3.2 NNE 15 19 8 10 1026.2 1026.2 0.0
22/07:00am 11.3 6.4 4.3 62 3.1 NE 19 22 10 12 1025.6 1025.6 0.0
22/06:30am 10.8 6.3 4.3 64 2.9 NE 17 20 9 11 1025.0 1025.0 0.0
22/06:00am 11.8 6.7 4.1 59 3.4 NE 20 24 11 13 1024.8 1024.8 0.0
22/05:30am 12.3 6.9 4.3 58 3.6 ENE 22 28 12 15 1024.6 1024.6 0.0
22/05:00am 12.1 6.7 4.6 60 3.4 NE 22 28 12 15 1024.4 1024.4 0.0
22/04:30am 10.8 6.0 4.7 66 2.7 NE 19 24 10 13 1024.4 1024.4 0.0
22/04:00am 11.6 6.6 4.8 63 3.1 NE 20 24 11 13 1024.4 1024.4 0.0
22/03:30am 12.1 6.8 4.8 61 3.3 NE 22 28 12 15 1024.3 1024.3 0.0
22/03:00am 12.2 6.9 5.1 62 3.3 NE 22 28 12 15 1024.4 1024.4 0.0
22/02:30am 10.9 6.6 5.2 68 2.6 NE 17 19 9 10 1024.7 1024.7 0.0
22/02:00am 11.0 6.3 5.1 67 2.7 NE 19 22 10 12 1025.0 1025.0 0.0
22/01:30am 12.2 7.6 5.6 64 3.1 NE 19 22 10 12 1025.2 1025.2 0.0
22/01:00am 11.7 7.5 5.8 67 2.7 NE 17 22 9 12 1025.3 1025.3 0.0
22/12:30am 10.0 6.9 5.4 73 2.1 ENE 11 15 6 8 1025.4 1025.4 0.0
22/12:00am 9.1 5.8 4.7 74 1.9 ENE 11 15 6 8 1025.4 1025.4 0.0
 
Date/Time
CST
Tmp

°C
App
Tmp
°C
Dew
Point
°C
Rel
Hum
%
Delta-T

°C
Wind Press
QNH
hPa
Press
MSL
hPa
Rain
since
9 am
mm
Dir
 
Spd
km/h
Gust
km/h
Spd
kts
Gust
kts
21/11:30pm 9.4 6.5 4.6 72 2.1 NE 9 11 5 6 1025.6 1025.6 0.0
21/11:00pm 12.0 8.2 5.6 65 3.0 ENE 15 20 8 11 1025.5 1025.5 0.0
21/10:30pm 12.3 8.6 6.1 66 2.9 ENE 15 20 8 11 1025.5 1025.5 0.0
21/10:00pm 9.4 6.1 4.8 73 2.1 NE 11 15 6 8 1025.7 1025.7 0.0
21/09:30pm 11.5 7.7 6.0 69 2.6 NNE 15 17 8 9 1025.6 1025.6 0.0
21/09:00pm 10.5 7.6 4.4 66 2.7 NE 9 11 5 6 1025.6 1025.6 0.0
21/08:30pm 13.3 10.7 5.9 61 3.5 E 9 13 5 7 1025.5 1025.5 0.0
21/08:00pm 13.4 10.8 6.0 61 3.5 E 9 13 5 7 1025.3 1025.3 0.0
21/07:30pm 13.6 11.0 6.2 61 3.5 E 9 11 5 6 1025.2 1025.2 0.0
21/07:00pm 14.1 11.2 6.5 60 3.7 E 11 15 6 8 1025.1 1025.1 0.0
21/06:30pm 15.3 12.0 6.3 55 4.3 E 13 17 7 9 1024.8 1024.8 0.0
21/06:00pm 15.0 11.9 7.3 60 3.8 ENE 13 17 7 9 1024.7 1024.7 0.0
21/05:30pm 15.1 11.6 7.2 59 3.9 ENE 15 20 8 11 1024.3 1024.3 0.0
21/05:00pm 15.9 12.4 7.1 56 4.3 ENE 15 19 8 10 1024.1 1024.1 0.0
21/04:30pm 16.4 13.3 7.3 55 4.5 ENE 13 17 7 9 1023.8 1023.8 0.0
21/04:00pm 17.1 13.2 7.2 52 4.9 ENE 17 20 9 11 1023.6 1023.6 0.0
21/03:30pm 17.7 14.2 7.4 51 5.2 E 15 20 8 11 1023.7 1023.7 0.0
21/03:00pm 17.3 13.5 7.4 52 4.9 ENE 17 22 9 12 1024.0 1024.0 0.0
21/02:30pm 17.7 14.0 8.0 53 4.9 NE 17 20 9 11 1024.1 1024.1 0.0
21/02:00pm 17.0 13.2 7.4 53 4.8 NE 17 22 9 12 1024.2 1024.2 0.0
21/01:30pm 17.6 13.8 7.6 52 5.0 NE 17 24 9 13 1024.3 1024.3 0.0
21/01:00pm 17.8 14.5 8.1 53 5.0 NE 15 20 8 11 1024.8 1024.8 0.0
21/12:30pm 17.4 13.4 6.6 49 5.3 NE 17 22 9 12 1025.2 1025.2 0.0
21/12:00pm 17.3 13.5 7.4 52 4.9 NE 17 20 9 11 1025.7 1025.7 0.0
21/11:30am 16.3 11.4 7.0 54 4.6 NE 22 30 12 16 1026.2 1026.2 0.0
21/11:00am 15.8 10.3 6.0 52 4.7 NE 24 30 13 16 1026.5 1026.5 0.0
21/10:30am 15.2 9.2 5.4 52 4.6 NE 26 32 14 17 1026.9 1026.9 0.0
21/10:00am 14.4 8.0 5.2 54 4.3 NE 28 35 15 19 1027.0 1027.0 0.0
21/09:30am 13.8 8.1 4.7 54 4.2 ENE 24 28 13 15 1027.2 1027.2 0.0
21/09:00am 13.3 8.9 4.7 56 3.9 ENE 17 24 9 13 1027.3 1027.3 0.0
21/08:30am 11.6 7.6 4.8 63 3.1 ENE 15 19 8 10 1027.3 1027.3 0.0
21/08:00am 10.1 5.6 4.0 66 2.7 ENE 17 22 9 12 1027.2 1027.2 0.0
21/07:30am 8.3 4.5 3.9 74 1.9 ENE 13 17 7 9 1027.1 1027.1 0.0
21/07:00am 6.7 3.0 2.4 74 1.8 ENE 11 13 6 7 1027.0 1027.0 0.0
21/06:30am 6.2 2.9 2.5 77 1.5 ENE 9 11 5 6 1026.6 1026.6 0.0
21/06:00am 5.9 2.6 2.4 78 1.4 NE 9 13 5 7 1026.6 1026.6 0.0
21/05:30am 7.2 3.9 2.5 72 1.9 ENE 9 15 5 8 1026.4 1026.4 0.0
21/05:00am 6.7 3.9 2.2 73 1.8 NE 6 7 3 4 1026.4 1026.4 0.0
21/04:30am 7.1 4.2 2.6 73 1.9 ENE 7 11 4 6 1026.4 1026.4 0.0
21/04:00am 7.8 4.2 2.7 70 2.1 NE 11 20 6 11 1026.3 1026.3 0.0
21/03:30am 9.4 5.8 2.7 63 2.8 E 11 17 6 9 1026.2 1026.2 0.0
21/03:00am 9.2 5.6 2.8 64 2.7 E 11 17 6 9 1026.3 1026.3 0.0
21/02:30am 9.5 5.5 2.8 63 2.8 E 13 19 7 10 1026.4 1026.4 0.0
21/02:00am 9.8 5.1 2.9 62 3.0 E 17 22 9 12 1026.5 1026.5 0.0
21/01:30am 10.0 5.2 2.8 61 3.1 E 17 24 9 13 1026.7 1026.7 0.0
21/01:00am 9.8 5.4 2.9 62 3.0 E 15 20 8 11 1026.7 1026.7 0.0
21/12:30am 9.9 5.1 2.7 61 3.1 ESE 17 24 9 13 1026.8 1026.8 0.0
21/12:00am 10.0 4.9 2.8 61 3.1 E 19 26 10 14 1026.7 1026.7 0.0
 
Date/Time
CST
Tmp

°C
App
Tmp
°C
Dew
Point
°C
Rel
Hum
%
Delta-T

°C
Wind Press
QNH
hPa
Press
MSL
hPa
Rain
since
9 am
mm
Dir
 
Spd
km/h
Gust
km/h
Spd
kts
Gust
kts
20/11:30pm 10.0 4.9 2.8 61 3.1 E 19 26 10 14 1026.8 1026.8 0.0
20/11:00pm 10.1 5.3 2.7 60 3.2 ESE 17 26 9 14 1026.8 1026.8 0.0
20/10:30pm 10.1 5.7 2.7 60 3.1 ESE 15 24 8 13 1026.8 1026.8 0.0
20/10:00pm 9.9 5.9 3.0 62 3.0 ESE 13 20 7 11 1026.9 1026.9 0.0
20/09:30pm 10.2 4.9 3.0 61 3.1 ESE 20 32 11 17 1026.9 1026.9 0.0
20/09:00pm 10.4 5.1 3.2 61 3.1 ESE 20 33 11 18 1026.8 1026.8 0.0
20/08:30pm 10.1 6.2 3.4 63 2.9 ESE 13 24 7 13 1026.8 1026.8 0.0
20/08:00pm 10.3 6.4 3.3 62 3.0 ESE 13 19 7 10 1026.8 1026.8 0.0
20/07:30pm 10.4 7.0 3.9 64 2.8 SE 11 15 6 8 1026.7 1026.7 0.0
20/07:00pm 11.2 7.5 4.2 62 3.1 SE 13 24 7 13 1026.5 1026.5 0.0
20/06:30pm 12.0 7.9 4.2 59 3.5 ESE 15 20 8 11 1026.4 1026.4 0.0
20/06:00pm 12.5 9.2 4.7 59 3.5 SSE 11 15 6 8 1026.2 1026.2 0.0
20/05:30pm 12.7 9.1 5.1 60 3.5 SSW 13 15 7 8 1026.1 1026.1 0.0
20/05:00pm 13.0 9.4 5.2 59 3.6 SSW 13 17 7 9 1026.0 1026.0 0.0
20/04:30pm 13.2 9.2 4.9 57 3.8 SSW 15 19 8 10 1026.0 1026.0 0.0
20/04:00pm 13.3 9.0 5.2 58 3.8 SW 17 19 9 10 1026.0 1026.0 0.0
20/03:30pm 13.4 9.6 5.8 60 3.6 SW 15 20 8 11 1026.0 1026.0 0.0
20/03:00pm 13.4 9.5 5.3 58 3.8 SW 15 20 8 11 1026.1 1026.1 0.0
20/02:30pm 13.5 9.6 5.4 58 3.8 SW 15 20 8 11 1026.1 1026.1 0.0
20/02:00pm 13.8 10.1 6.2 60 3.6 SW 15 20 8 11 1026.1 1026.1 0.0
20/01:30pm 14.2 10.1 6.1 58 3.8 SW 17 22 9 12 1026.1 1026.1 0.0
20/01:00pm 14.4 9.7 5.2 54 4.3 WSW 19 24 10 13 1026.4 1026.4 0.0
20/12:30pm 14.1 11.5 3.0 47 4.9 ESE 6 9 3 5 1026.8 1026.8 0.0
20/12:00pm 13.0 10.2 3.1 51 4.4 SSW 7 11 4 6 1027.3 1027.3 0.0
20/11:30am 13.1 10.0 3.7 53 4.2 S 9 13 5 7 1027.7 1027.7 0.0
20/11:00am 13.9 11.4 3.9 51 4.6 E 6 13 3 7 1027.8 1027.8 0.0
20/10:30am 13.1 10.0 3.7 53 4.2 ESE 9 17 5 9 1027.9 1027.9 0.0
20/10:00am 12.8 9.5 4.3 56 3.9 E 11 20 6 11 1028.0 1028.0 0.0
20/09:30am 12.2 8.4 3.9 57 3.7 E 13 19 7 10 1028.0 1028.0 0.0
20/09:00am 10.2 8.0 5.4 72 2.2 NW 6 9 3 5 1027.9 1027.9 0.0
20/08:30am 8.1 5.8 5.6 84 1.1 W 7 9 4 5 1027.8 1027.8 0.0
20/08:00am 6.0 3.0 4.3 89 0.7 NNW 9 13 5 7 1027.6 1027.6 0.0
20/07:30am 3.2 0.3 1.6 89 0.6 W 6 7 3 4 1027.3 1027.3 0.0
20/07:00am 3.3 0.4 1.3 87 0.8 S 6 6 3 3 1026.9 1026.9 0.0
20/06:30am 3.9 2.2 2.1 88 0.7 CALM 0 0 0 0 1026.7 1026.7 0.0
20/06:00am 3.6 1.5 1.6 87 0.8 ENE 2 6 1 3 1026.8 1026.8 0.0
20/05:30am 4.4 2.8 2.4 87 0.8 CALM 0 6 0 3 1026.6 1026.6 0.0
20/05:00am 4.2 2.6 2.4 88 0.7 CALM 0 0 0 0 1026.5 1026.5 0.0
20/04:30am 4.7 3.1 2.6 86 0.8 CALM 0 0 0 0 1026.4 1026.4 0.0
20/04:00am 4.7 2.0 2.7 87 0.8 N 6 9 3 5 1026.2 1026.2 0.0
20/03:30am 5.3 2.5 3.2 86 0.9 NNE 7 11 4 6 1026.0 1026.0 0.0
20/03:00am 5.5 3.0 3.5 87 0.8 ENE 6 9 3 5 1026.0 1026.0 0.0
20/02:30am 5.0 2.1 2.7 85 0.9 NE 7 9 4 5 1026.2 1026.2 0.0
20/02:00am 7.9 5.5 4.3 78 1.6 ESE 6 7 3 4 1026.2 1026.2 0.0
20/01:30am 7.9 4.9 3.9 76 1.7 SSE 9 11 5 6 1026.3 1026.3 0.0
20/01:00am 8.2 5.2 4.0 75 1.8 SSE 9 13 5 7 1026.3 1026.3 0.0
20/12:30am 8.3 4.9 3.9 74 1.9 SSE 11 13 6 7 1026.4 1026.4 0.0
20/12:00am 8.5 5.5 3.9 73 2.0 SSE 9 13 5 7 1026.4 1026.4 0.0
 
Date/Time
CST
Tmp

°C
App
Tmp
°C
Dew
Point
°C
Rel
Hum
%
Delta-T

°C
Wind Press
QNH
hPa
Press
MSL
hPa
Rain
since
9 am
mm
Dir
 
Spd
km/h
Gust
km/h
Spd
kts
Gust
kts
19/11:30pm 8.8 5.7 3.6 70 2.2 SSE 9 11 5 6 1026.5 1026.5 0.0
19/11:00pm 9.7 6.7 4.3 69 2.4 S 9 11 5 6 1026.6 1026.6 0.0
19/10:30pm 10.2 7.6 4.1 66 2.7 S 7 11 4 6 1026.7 1026.7 0.0
19/10:00pm 10.9 8.3 4.4 64 2.9 SSE 7 11 4 6 1026.9 1026.9 0.0
19/09:30pm 11.1 8.1 4.1 62 3.1 S 9 13 5 7 1026.9 1026.9 0.0

Latest Capital City Observations: Canberra | Sydney | Melbourne | Brisbane | Adelaide | Perth | Hobart | Darwin

Other Formats:

Comma delimited format used in spreadsheet applications
http://www.bom.gov.au/fwo/IDS60901/IDS60901.95676.axf

JavaScript Object Notation format (JSON) in row-major order
http://www.bom.gov.au/fwo/IDS60901/IDS60901.95676.json